createdAt,value
2018-09-26T00:00:44.868Z,89.60
2018-09-26T00:03:20.175Z,89.30
2018-09-26T00:05:55.365Z,89.50
2018-09-26T00:08:23.668Z,89.50
2018-09-26T00:10:51.941Z,89.70
2018-09-26T00:13:26.798Z,89.90
2018-09-26T00:15:55.122Z,89.80
2018-09-26T00:18:23.559Z,89.80
2018-09-26T00:20:51.945Z,89.90
2018-09-26T00:23:20.286Z,89.90
2018-09-26T00:25:48.673Z,89.90
2018-09-26T00:28:17.128Z,89.80
2018-09-26T00:30:45.535Z,89.50
2018-09-26T00:33:26.167Z,89.50
2018-09-26T00:36:48.330Z,89.50
2018-09-26T02:30:54.828Z,90.70
2018-09-26T02:33:23.642Z,90.60
2018-09-26T02:35:52.147Z,90.70
2018-09-26T02:38:25.080Z,90.80
2018-09-26T02:40:54.944Z,90.80
2018-09-26T02:43:23.837Z,90.80
2018-09-26T02:46:01.815Z,90.90
2018-09-26T02:48:35.695Z,90.70
2018-09-26T02:51:11.019Z,90.70
2018-09-26T02:53:39.875Z,90.70
2018-09-26T02:56:13.169Z,90.70
2018-09-26T02:58:45.129Z,90.70
2018-09-26T03:01:20.906Z,90.70
2018-09-26T03:03:50.129Z,90.80
2018-09-26T03:06:19.028Z,90.80
2018-09-26T03:08:47.698Z,90.80
2018-09-26T03:11:16.640Z,90.80
2018-09-26T03:13:45.179Z,90.90
2018-09-26T03:16:13.803Z,91.00
2018-09-26T03:18:42.726Z,91.10
2018-09-26T03:21:12.057Z,91.10
2018-09-26T03:23:40.738Z,91.10
2018-09-26T03:26:09.814Z,90.70
2018-09-26T03:28:38.576Z,90.80
2018-09-26T04:59:15.437Z,91.10
2018-09-26T05:01:44.021Z,91.10
2018-09-26T05:46:20.787Z,90.20
2018-09-26T05:54:29.566Z,90.30
2018-09-26T05:56:57.861Z,90.40
2018-09-26T05:59:26.362Z,90.50
2018-09-26T06:01:54.617Z,90.50
2018-09-26T06:07:28.406Z,90.40
2018-09-26T06:10:23.798Z,90.30
2018-09-26T06:12:52.179Z,90.20
2018-09-26T06:32:26.235Z,90.20
2018-09-26T06:34:54.624Z,90.00
2018-09-26T06:37:22.844Z,89.30
2018-09-26T06:39:51.115Z,89.60
2018-09-26T06:42:19.418Z,89.30
2018-09-26T06:44:48.859Z,88.60
2018-09-26T06:47:17.129Z,88.20
2018-09-26T06:49:53.629Z,87.30
2018-09-26T06:52:23.416Z,87.00
2018-09-26T06:54:59.883Z,86.50
2018-09-26T06:57:28.364Z,86.30
2018-09-26T06:59:56.973Z,86.10
2018-09-26T07:02:25.491Z,85.80
2018-09-26T07:04:54.415Z,85.40
2018-09-26T07:07:23.717Z,84.60
2018-09-26T07:09:52.883Z,84.20
2018-09-26T07:12:21.808Z,84.40
2018-09-26T07:14:52.075Z,84.20
2018-09-26T07:17:21.090Z,84.20
2018-09-26T07:19:55.462Z,83.70
2018-09-26T07:22:23.998Z,83.90
2018-09-26T07:24:52.396Z,85.20
2018-09-26T07:27:21.187Z,84.10
2018-09-26T07:29:49.441Z,83.80
2018-09-26T07:32:18.201Z,83.90
2018-09-26T07:34:47.003Z,84.20
2018-09-26T07:37:15.512Z,83.60
2018-09-26T07:39:56.588Z,83.80
2018-09-26T07:47:57.590Z,83.80
2018-09-26T07:50:25.806Z,83.50
2018-09-26T07:52:54.158Z,82.80
2018-09-26T07:55:28.947Z,82.40
2018-09-26T07:57:57.181Z,82.30
2018-09-26T08:00:25.452Z,82.70
2018-09-26T08:02:53.702Z,81.40
2018-09-26T08:05:22.096Z,80.90
2018-09-26T08:07:50.358Z,80.80
2018-09-26T08:10:18.554Z,81.10
2018-09-26T08:12:46.825Z,80.40
2018-09-26T08:15:15.034Z,80.10
2018-09-26T08:17:43.260Z,79.50
2018-09-26T08:20:11.526Z,79.40
2018-09-26T08:22:39.746Z,78.40
2018-09-26T08:25:07.939Z,78.20
2018-09-26T08:27:36.187Z,78.00
2018-09-26T08:30:04.443Z,77.20
2018-09-26T08:32:32.664Z,77.00
2018-09-26T08:35:00.941Z,76.20
2018-09-26T08:37:29.274Z,76.30
2018-09-26T08:39:57.616Z,76.20
2018-09-26T08:42:26.007Z,75.80
2018-09-26T08:44:54.243Z,75.40
2018-09-26T08:47:22.501Z,75.10
2018-09-26T08:49:50.755Z,75.00
2018-09-26T08:52:19.110Z,75.20
2018-09-26T08:54:47.325Z,74.90
2018-09-26T08:57:15.572Z,74.50
2018-09-26T08:59:43.987Z,74.40
2018-09-26T09:02:12.319Z,73.60
2018-09-26T09:04:40.584Z,73.90
2018-09-26T09:07:10.069Z,73.80
2018-09-26T09:09:38.335Z,73.70
2018-09-26T09:12:06.584Z,73.10
2018-09-26T09:14:34.916Z,72.30
2018-09-26T09:17:03.060Z,71.90
2018-09-26T09:19:31.391Z,71.20
2018-09-26T09:21:59.646Z,71.20
2018-09-26T09:24:27.859Z,70.70
2018-09-26T09:26:56.098Z,70.60
2018-09-26T09:29:24.330Z,69.50
2018-09-26T09:31:52.583Z,69.60
2018-09-26T09:34:20.818Z,69.20
2018-09-26T09:36:49.062Z,68.80
2018-09-26T09:39:17.375Z,68.50
2018-09-26T09:41:45.630Z,67.40
2018-09-26T09:44:14.569Z,65.80
2018-09-26T09:46:42.749Z,65.40
2018-09-26T09:49:10.978Z,64.50
2018-09-26T09:51:39.285Z,64.10
2018-09-26T09:54:07.722Z,62.70
2018-09-26T09:56:36.091Z,61.30
2018-09-26T09:59:04.430Z,62.10
2018-09-26T10:01:32.842Z,62.00
2018-09-26T10:04:01.319Z,61.90
2018-09-26T10:06:30.228Z,61.50
2018-09-26T10:08:58.970Z,61.20
2018-09-26T10:11:27.506Z,61.30
2018-09-26T10:13:55.762Z,61.00
2018-09-26T10:16:24.133Z,60.80
2018-09-26T10:18:52.580Z,61.30
2018-09-26T10:21:21.757Z,60.80
2018-09-26T10:23:50.122Z,61.10
2018-09-26T10:26:18.597Z,60.70
2018-09-26T10:28:46.953Z,60.80
2018-09-26T10:31:15.246Z,60.70
2018-09-26T10:33:43.536Z,61.00
2018-09-26T10:36:11.861Z,61.20
2018-09-26T10:38:40.165Z,60.30
2018-09-26T10:41:08.466Z,59.50
2018-09-26T10:43:36.722Z,58.50
2018-09-26T10:46:05.002Z,57.60
2018-09-26T10:48:33.256Z,57.00
2018-09-26T10:51:01.516Z,56.20
2018-09-26T10:53:29.798Z,56.40
2018-09-26T10:55:58.080Z,56.50
2018-09-26T10:58:26.355Z,56.00
2018-09-26T11:00:54.659Z,55.00
2018-09-26T11:03:22.962Z,55.10
2018-09-26T11:05:51.278Z,54.90
2018-09-26T11:08:19.545Z,54.90
2018-09-26T11:10:47.822Z,54.40
2018-09-26T11:13:16.246Z,54.10
2018-09-26T11:15:44.695Z,54.00
2018-09-26T11:18:16.069Z,53.50
2018-09-26T11:20:44.351Z,53.10
2018-09-26T11:23:13.040Z,52.20
2018-09-26T11:25:41.355Z,52.00
2018-09-26T11:28:09.735Z,52.40
2018-09-26T11:30:38.036Z,52.60
2018-09-26T11:33:06.405Z,51.40
2018-09-26T11:35:34.726Z,50.90
2018-09-26T11:38:03.836Z,51.10
2018-09-26T11:40:32.056Z,50.10
2018-09-26T11:43:00.412Z,49.30
2018-09-26T11:45:28.730Z,48.90
2018-09-26T11:47:56.978Z,48.30
2018-09-26T11:50:25.514Z,48.30
2018-09-26T11:52:53.898Z,48.90
2018-09-26T11:55:22.411Z,48.20
2018-09-26T11:57:50.783Z,48.20
2018-09-26T12:00:19.166Z,47.40
2018-09-26T12:02:47.566Z,47.30
2018-09-26T12:05:15.847Z,47.20
2018-09-26T12:07:44.167Z,46.70
2018-09-26T12:10:13.195Z,46.00
2018-09-26T12:12:41.647Z,45.90
2018-09-26T12:15:09.950Z,45.60
2018-09-26T12:17:44.985Z,45.40
2018-09-26T12:20:13.258Z,45.00
2018-09-26T12:22:41.578Z,44.90
2018-09-26T12:25:09.628Z,45.10
2018-09-26T12:27:37.936Z,45.00
2018-09-26T12:30:07.189Z,44.40
2018-09-26T12:32:35.590Z,44.20
2018-09-26T12:35:03.843Z,43.40
2018-09-26T12:37:32.216Z,43.50
2018-09-26T12:40:00.489Z,43.30
2018-09-26T12:42:28.791Z,43.00
2018-09-26T12:44:57.043Z,43.20
2018-09-26T12:47:25.414Z,42.60
2018-09-26T12:49:53.625Z,43.20
2018-09-26T12:52:21.907Z,43.10
2018-09-26T12:54:50.240Z,43.10
2018-09-26T12:57:18.555Z,42.90
2018-09-26T12:59:47.155Z,43.40
2018-09-26T13:02:15.498Z,42.60
2018-09-26T13:04:43.836Z,42.90
2018-09-26T13:07:12.110Z,42.70
2018-09-26T13:09:40.375Z,42.80
2018-09-26T13:12:08.676Z,42.90
2018-09-26T13:14:36.978Z,42.60
2018-09-26T13:17:06.016Z,41.70
2018-09-26T13:19:34.249Z,41.10
2018-09-26T13:22:02.538Z,41.30
2018-09-26T13:24:30.869Z,41.60
2018-09-26T13:26:59.159Z,40.80
2018-09-26T13:29:27.354Z,40.30
2018-09-26T13:31:55.613Z,40.80
2018-09-26T13:34:23.961Z,40.40
2018-09-26T13:36:52.094Z,40.20
2018-09-26T13:39:20.469Z,39.80
2018-09-26T13:41:48.772Z,39.00
2018-09-26T13:44:17.073Z,38.70
2018-09-26T13:46:45.399Z,38.00
2018-09-26T13:49:13.729Z,38.30
2018-09-26T13:51:41.998Z,38.30
2018-09-26T13:54:10.381Z,38.20
2018-09-26T13:56:38.646Z,38.30
2018-09-26T13:59:06.978Z,38.20
2018-09-26T14:01:35.416Z,38.50
2018-09-26T14:04:03.638Z,38.50
2018-09-26T14:06:31.867Z,38.50
2018-09-26T14:09:00.138Z,38.30
2018-09-26T14:11:28.397Z,38.60
2018-09-26T14:13:56.671Z,38.50
2018-09-26T14:16:24.954Z,38.60
2018-09-26T14:18:53.273Z,38.50
2018-09-26T14:21:21.545Z,39.10
2018-09-26T14:23:49.784Z,39.20
2018-09-26T14:26:18.125Z,38.60
2018-09-26T14:28:46.267Z,38.70
2018-09-26T14:31:14.587Z,39.10
2018-09-26T14:33:42.763Z,39.10
2018-09-26T14:36:11.044Z,39.00
2018-09-26T14:38:39.314Z,39.20
2018-09-26T14:41:07.643Z,38.60
2018-09-26T14:43:35.867Z,38.70
2018-09-26T14:46:04.176Z,39.20
2018-09-26T14:48:32.458Z,39.90
2018-09-26T14:51:00.695Z,39.20
2018-09-26T14:53:28.975Z,39.40
2018-09-26T14:56:00.234Z,39.40
2018-09-26T14:58:28.560Z,39.60
2018-09-26T15:00:57.022Z,39.30
2018-09-26T15:03:25.811Z,38.80
2018-09-26T15:05:54.110Z,39.00
2018-09-26T15:08:22.430Z,39.30
2018-09-26T15:10:50.671Z,39.30
2018-09-26T15:13:18.910Z,39.40
2018-09-26T15:15:47.149Z,39.60
2018-09-26T15:18:15.563Z,39.50
2018-09-26T15:20:45.045Z,39.40
2018-09-26T15:23:13.246Z,39.40
2018-09-26T15:25:41.706Z,39.90
2018-09-26T15:28:10.157Z,39.90
2018-09-26T15:30:38.331Z,39.80
2018-09-26T15:33:06.569Z,39.50
2018-09-26T15:35:35.016Z,40.10
2018-09-26T15:38:03.389Z,41.20
2018-09-26T15:40:31.801Z,40.60
2018-09-26T15:43:00.006Z,40.30
2018-09-26T15:45:28.372Z,40.40
2018-09-26T15:47:56.678Z,40.50
2018-09-26T15:50:25.036Z,40.60
2018-09-26T15:52:53.422Z,40.60
2018-09-26T15:55:21.719Z,40.80
2018-09-26T15:57:49.998Z,40.70
2018-09-26T16:00:18.502Z,41.00
2018-09-26T16:02:46.691Z,41.30
2018-09-26T16:05:14.943Z,41.10
2018-09-26T16:07:43.189Z,41.10
2018-09-26T16:10:11.649Z,41.50
2018-09-26T16:12:39.944Z,42.20
2018-09-26T16:15:08.346Z,42.10
2018-09-26T16:17:36.558Z,42.20
2018-09-26T16:20:05.010Z,42.40
2018-09-26T16:22:33.236Z,43.10
2018-09-26T16:25:01.511Z,42.70
2018-09-26T16:27:29.750Z,43.10
2018-09-26T16:29:58.100Z,43.00
2018-09-26T16:32:27.146Z,43.50
2018-09-26T16:34:55.489Z,44.00
2018-09-26T16:37:23.797Z,43.80
2018-09-26T16:39:52.122Z,44.50
2018-09-26T16:42:20.371Z,44.80
2018-09-26T16:44:48.813Z,45.10
2018-09-26T16:47:17.135Z,45.60
2018-09-26T16:49:45.350Z,45.40
2018-09-26T16:52:13.636Z,45.30
2018-09-26T16:54:41.865Z,46.10
2018-09-26T16:57:10.206Z,46.60
2018-09-26T16:59:39.031Z,46.60
2018-09-26T17:02:07.419Z,46.80
2018-09-26T17:04:35.980Z,47.10
2018-09-26T17:07:04.264Z,47.60
2018-09-26T17:09:32.438Z,47.70
2018-09-26T17:12:00.679Z,48.10
2018-09-26T17:14:28.931Z,48.50
2018-09-26T17:16:57.194Z,48.90
2018-09-26T17:19:27.322Z,49.30
2018-09-26T17:21:55.506Z,49.80
2018-09-26T17:24:23.872Z,50.10
2018-09-26T17:26:52.326Z,50.40
2018-09-26T17:29:20.554Z,50.60
2018-09-26T17:31:48.873Z,51.10
2018-09-26T17:34:17.331Z,51.40
2018-09-26T17:36:45.543Z,51.60
2018-09-26T17:39:15.372Z,51.90
2018-09-26T17:41:43.700Z,52.10
2018-09-26T17:44:11.987Z,52.60
2018-09-26T17:46:41.584Z,53.10
2018-09-26T17:49:09.933Z,52.90
2018-09-26T17:51:38.602Z,52.90
2018-09-26T17:54:08.331Z,53.00
2018-09-26T17:56:36.578Z,53.20
2018-09-26T17:59:04.871Z,53.70
2018-09-26T18:01:33.721Z,53.90
2018-09-26T18:04:01.960Z,54.30
2018-09-26T18:06:30.211Z,54.60
2018-09-26T18:08:58.507Z,55.10
2018-09-26T18:11:26.752Z,55.30
2018-09-26T18:13:55.092Z,55.60
2018-09-26T18:19:01.242Z,56.20
2018-09-26T18:21:31.244Z,56.80
2018-09-26T18:23:59.512Z,57.00
2018-09-26T18:26:28.068Z,57.40
2018-09-26T18:28:56.687Z,57.90
2018-09-26T18:31:25.362Z,58.20
2018-09-26T18:33:53.590Z,58.30
2018-09-26T18:36:21.846Z,58.60
2018-09-26T18:38:50.309Z,58.70
2018-09-26T18:41:18.524Z,58.80
2018-09-26T18:43:46.819Z,59.00
2018-09-26T18:46:15.363Z,59.10
2018-09-26T18:48:43.622Z,59.80
2018-09-26T18:51:12.091Z,60.40
2018-09-26T18:53:40.417Z,60.90
2018-09-26T18:56:08.775Z,61.00
2018-09-26T18:58:37.022Z,61.40
2018-09-26T19:01:05.305Z,62.10
2018-09-26T19:03:33.708Z,62.40
2018-09-26T19:06:02.278Z,62.40
2018-09-26T19:08:30.654Z,63.80
2018-09-26T19:10:59.096Z,63.00
2018-09-26T19:13:27.398Z,63.30
2018-09-26T19:15:55.681Z,63.30
2018-09-26T19:18:24.457Z,64.00
2018-09-26T19:20:53.063Z,63.60
2018-09-26T19:23:21.484Z,63.60
2018-09-26T19:25:50.234Z,63.80
2018-09-26T19:28:19.391Z,63.70
2018-09-26T19:30:47.754Z,64.10
2018-09-26T19:33:17.522Z,64.20
2018-09-26T19:35:45.982Z,64.30
2018-09-26T19:38:14.271Z,65.00
2018-09-26T19:40:43.211Z,65.30
2018-09-26T19:43:11.695Z,65.70
2018-09-26T19:45:40.291Z,65.70
2018-09-26T19:48:08.678Z,65.70
2018-09-26T19:50:37.183Z,66.00
2018-09-26T19:53:06.368Z,66.40
2018-09-26T19:55:34.955Z,66.40
2018-09-26T19:58:03.750Z,66.90
2018-09-26T20:00:32.035Z,67.00
2018-09-26T20:03:00.274Z,67.30
2018-09-26T20:05:28.794Z,67.20
2018-09-26T20:07:57.165Z,67.00
2018-09-26T20:10:25.375Z,67.10
2018-09-26T20:12:53.719Z,66.80
2018-09-26T20:15:21.959Z,67.10
2018-09-26T20:17:50.667Z,67.60
2018-09-26T20:20:18.998Z,67.80
2018-09-26T20:22:47.366Z,68.10
2018-09-26T20:25:15.735Z,68.50
2018-09-26T20:27:44.022Z,67.90
2018-09-26T20:30:12.409Z,67.60
2018-09-26T20:32:40.699Z,67.80
2018-09-26T20:35:09.797Z,68.60
2018-09-26T20:37:38.398Z,68.70
2018-09-26T20:40:06.840Z,68.30
2018-09-26T20:42:35.362Z,68.90
2018-09-26T20:45:04.007Z,69.20
2018-09-26T20:47:32.383Z,70.00
2018-09-26T20:50:00.823Z,70.30
2018-09-26T20:52:30.798Z,70.80
2018-09-26T20:54:59.252Z,71.10
2018-09-26T20:57:27.875Z,72.40
2018-09-26T20:59:56.260Z,72.30
2018-09-26T21:02:24.558Z,72.80
2018-09-26T21:04:53.001Z,73.10
2018-09-26T21:07:21.253Z,73.70
2018-09-26T21:09:49.598Z,74.40
2018-09-26T21:12:17.929Z,75.10
2018-09-26T21:14:46.288Z,75.50
2018-09-26T21:17:14.822Z,75.30
2018-09-26T21:19:43.033Z,75.30
2018-09-26T21:22:11.250Z,75.70
2018-09-26T21:24:39.535Z,75.80
2018-09-26T21:27:07.810Z,75.80
2018-09-26T21:29:36.056Z,76.20
2018-09-26T21:32:04.354Z,75.90
2018-09-26T21:34:32.704Z,75.70
2018-09-26T21:37:00.964Z,75.70
2018-09-26T21:39:29.265Z,75.80
2018-09-26T21:41:57.580Z,75.90
2018-09-26T21:44:25.841Z,76.10
2018-09-26T21:46:54.114Z,76.50
2018-09-26T21:49:22.452Z,76.80
2018-09-26T21:51:50.840Z,76.90
2018-09-26T21:54:19.079Z,77.20
2018-09-26T21:56:47.370Z,77.40
2018-09-26T21:59:15.610Z,77.50
2018-09-26T22:01:44.015Z,77.80
2018-09-26T22:04:12.295Z,77.90
2018-09-26T22:06:40.669Z,78.20
2018-09-26T22:09:08.907Z,78.50
2018-09-26T22:11:37.130Z,78.80
2018-09-26T22:14:05.343Z,79.30
2018-09-26T22:16:33.600Z,79.40
2018-09-26T22:19:01.906Z,79.40
2018-09-26T22:21:30.309Z,79.70
2018-09-26T22:23:58.549Z,80.00
2018-09-26T22:26:26.781Z,80.80
2018-09-26T22:28:55.030Z,80.30
2018-09-26T22:31:23.499Z,80.50
2018-09-26T22:33:51.643Z,80.70
2018-09-26T22:36:19.938Z,81.00
2018-09-26T22:38:48.170Z,81.20
2018-09-26T22:41:16.399Z,81.40
2018-09-26T22:43:44.755Z,81.50
2018-09-26T22:46:12.990Z,81.70
2018-09-26T22:48:41.262Z,81.80
2018-09-26T22:51:09.539Z,82.00
2018-09-26T22:53:37.914Z,82.30
2018-09-26T22:56:06.178Z,82.50
2018-09-26T22:58:34.548Z,83.30
2018-09-26T23:01:02.837Z,83.20
2018-09-26T23:03:31.108Z,83.00
2018-09-26T23:05:59.328Z,83.10
2018-09-26T23:08:27.590Z,83.20
2018-09-26T23:10:56.196Z,83.10
2018-09-26T23:13:24.446Z,83.40
2018-09-26T23:15:52.691Z,83.40
2018-09-26T23:18:20.886Z,83.50
2018-09-26T23:20:49.171Z,83.60
2018-09-26T23:23:17.422Z,83.90
2018-09-26T23:25:45.839Z,84.30
2018-09-26T23:28:14.125Z,84.50
2018-09-26T23:30:42.352Z,84.70
2018-09-26T23:33:10.589Z,85.20
2018-09-26T23:35:38.814Z,85.30
2018-09-26T23:38:07.097Z,85.60
2018-09-26T23:40:35.323Z,85.60
2018-09-26T23:43:03.597Z,85.40
2018-09-26T23:45:31.989Z,85.30
2018-09-26T23:48:00.237Z,85.10
2018-09-26T23:50:28.487Z,85.20
2018-09-26T23:52:56.744Z,85.60
2018-09-26T23:55:25.031Z,85.60
2018-09-26T23:57:53.295Z,85.70
